createdAt,value
2018-05-10T00:00:32.771Z,9.65
2018-05-10T00:03:01.787Z,9.36
2018-05-10T00:05:30.027Z,9.15
2018-05-10T00:07:58.384Z,9.10
2018-05-10T00:10:26.533Z,9.08
2018-05-10T00:12:55.132Z,9.09
2018-05-10T00:15:24.036Z,9.45
2018-05-10T00:17:52.280Z,9.40
2018-05-10T00:20:21.295Z,9.17
2018-05-10T00:22:49.539Z,9.00
2018-05-10T00:25:18.555Z,8.85
2018-05-10T00:27:47.570Z,8.83
2018-05-10T00:30:15.811Z,8.83
2018-05-10T00:32:44.063Z,8.83
2018-05-10T00:35:12.314Z,8.88
2018-05-10T00:37:40.568Z,9.03
2018-05-10T00:40:09.583Z,9.11
2018-05-10T00:42:37.839Z,9.38
2018-05-10T00:45:07.471Z,9.12
2018-05-10T00:47:35.725Z,8.98
2018-05-10T00:50:04.734Z,9.12
2018-05-10T00:52:33.756Z,8.79
2018-05-10T00:55:01.994Z,8.62
2018-05-10T00:57:30.247Z,8.55
2018-05-10T00:59:58.493Z,8.50
2018-05-10T01:02:26.740Z,8.42
2018-05-10T01:04:55.812Z,8.54
2018-05-10T01:07:26.010Z,8.28
2018-05-10T01:09:54.244Z,8.18
2018-05-10T01:12:23.259Z,8.07
2018-05-10T01:14:51.501Z,8.06
2018-05-10T01:17:19.756Z,8.01
2018-05-10T01:19:47.999Z,8.00
2018-05-10T01:22:16.255Z,8.08
2018-05-10T01:24:44.509Z,7.94
2018-05-10T01:27:12.750Z,7.90
2018-05-10T01:29:41.009Z,7.88
2018-05-10T01:32:10.015Z,7.90
2018-05-10T01:34:39.033Z,7.89
2018-05-10T01:37:07.285Z,7.91
2018-05-10T01:39:36.292Z,7.85
2018-05-10T01:42:05.298Z,7.82
2018-05-10T01:44:33.559Z,7.77
2018-05-10T01:47:02.563Z,7.70
2018-05-10T01:49:31.583Z,7.68
2018-05-10T01:51:59.831Z,7.66
2018-05-10T01:54:28.847Z,7.61
2018-05-10T01:56:57.078Z,7.61
2018-05-10T01:59:25.340Z,7.52
2018-05-10T02:01:53.578Z,7.51
2018-05-10T02:04:22.602Z,7.49
2018-05-10T02:06:50.839Z,7.62
2018-05-10T02:09:19.091Z,7.71
2018-05-10T02:11:47.340Z,7.50
2018-05-10T02:14:15.603Z,7.32
2018-05-10T02:16:43.855Z,7.21
2018-05-10T02:19:12.105Z,7.15
2018-05-10T02:21:41.586Z,7.35
2018-05-10T02:24:09.834Z,7.07
2018-05-10T02:26:38.842Z,6.92
2018-05-10T02:29:07.869Z,6.84
2018-05-10T02:31:36.116Z,6.78
2018-05-10T02:34:05.145Z,6.80
2018-05-10T02:36:33.375Z,6.75
2018-05-10T02:39:01.623Z,6.68
2018-05-10T02:41:29.878Z,6.66
2018-05-10T02:43:58.128Z,6.67
2018-05-10T02:46:27.138Z,6.60
2018-05-10T02:48:56.152Z,6.60
2018-05-10T02:51:24.403Z,6.56
2018-05-10T02:53:53.414Z,6.56
2018-05-10T02:56:22.431Z,6.56
2018-05-10T02:58:50.687Z,6.50
2018-05-10T03:01:19.705Z,6.49
2018-05-10T03:03:47.940Z,6.52
2018-05-10T03:06:16.238Z,6.46
2018-05-10T03:08:45.243Z,6.46
2018-05-10T03:11:14.268Z,6.46
2018-05-10T03:13:42.512Z,6.47
2018-05-10T03:16:11.531Z,6.47
2018-05-10T03:18:39.771Z,6.86
2018-05-10T03:21:08.033Z,6.78
2018-05-10T03:23:36.271Z,6.88
2018-05-10T03:26:04.535Z,6.52
2018-05-10T03:28:33.545Z,6.36
2018-05-10T03:31:02.562Z,6.62
2018-05-10T03:33:30.804Z,6.69
2018-05-10T03:35:59.827Z,6.59
2018-05-10T03:38:28.079Z,6.55
2018-05-10T03:40:56.326Z,6.24
2018-05-10T03:43:24.565Z,6.17
2018-05-10T03:45:52.819Z,6.26
2018-05-10T03:48:21.833Z,6.15
2018-05-10T03:50:50.884Z,6.44
2018-05-10T03:53:19.112Z,6.45
2018-05-10T03:55:47.466Z,6.34
2018-05-10T03:58:15.710Z,6.36
2018-05-10T04:00:43.968Z,6.41
2018-05-10T04:06:49.066Z,6.48
2018-05-10T04:12:24.347Z,6.90
2018-05-10T04:14:52.595Z,6.89
2018-05-10T04:17:21.614Z,7.01
2018-05-10T04:19:49.863Z,7.11
2018-05-10T04:22:18.883Z,7.27
2018-05-10T04:24:47.915Z,7.46
2018-05-10T04:27:17.405Z,7.80
2018-05-10T04:29:45.657Z,8.17
2018-05-10T04:32:14.676Z,8.70
2018-05-10T04:34:42.919Z,8.74
2018-05-10T04:37:11.171Z,8.84
2018-05-10T04:39:39.410Z,8.95
2018-05-10T04:42:07.698Z,9.06
2018-05-10T04:44:36.687Z,9.24
2018-05-10T04:47:04.958Z,9.34
2018-05-10T04:49:33.936Z,9.58
2018-05-10T04:52:02.184Z,9.98
2018-05-10T04:54:30.436Z,10.43
2018-05-10T04:56:58.699Z,10.61
2018-05-10T04:59:27.709Z,10.68
2018-05-10T05:01:55.959Z,10.95
2018-05-10T05:04:24.976Z,11.11
2018-05-10T05:06:54.003Z,11.36
2018-05-10T05:09:23.075Z,11.47
2018-05-10T05:11:51.397Z,11.62
2018-05-10T05:14:20.361Z,13.18
2018-05-10T05:16:48.615Z,14.68
2018-05-10T05:19:17.671Z,16.75
2018-05-10T05:21:45.903Z,18.52
2018-05-10T05:24:14.925Z,17.65
2018-05-10T05:26:43.188Z,14.71
2018-05-10T05:29:12.199Z,13.37
2018-05-10T05:31:40.495Z,12.69
2018-05-10T05:34:09.484Z,12.02
2018-05-10T05:36:37.842Z,12.24
2018-05-10T05:39:05.997Z,16.01
2018-05-10T05:41:34.795Z,17.58
2018-05-10T05:44:03.824Z,19.69
2018-05-10T05:46:32.084Z,18.81
2018-05-10T05:49:01.124Z,18.10
2018-05-10T05:51:29.375Z,19.40
2018-05-10T05:53:58.400Z,21.75
2018-05-10T05:56:26.642Z,23.70
2018-05-10T05:58:55.671Z,24.33
2018-05-10T06:01:23.940Z,23.86
2018-05-10T06:03:52.206Z,25.85
2018-05-10T06:06:21.220Z,26.72
2018-05-10T06:08:49.487Z,26.88
2018-05-10T06:11:18.506Z,27.30
2018-05-10T06:13:47.631Z,28.25
2018-05-10T06:16:15.890Z,29.84
2018-05-10T06:18:44.147Z,28.89
2018-05-10T06:21:12.441Z,27.78
2018-05-10T06:23:40.671Z,29.42
2018-05-10T06:26:08.929Z,28.36
2018-05-10T06:28:37.182Z,28.51
2018-05-10T06:31:05.431Z,26.73
2018-05-10T06:33:34.459Z,30.52
2018-05-10T06:36:02.710Z,28.65
2018-05-10T06:38:31.751Z,30.17
2018-05-10T06:41:00.003Z,28.77
2018-05-10T06:43:29.028Z,27.98
2018-05-10T06:45:57.279Z,31.15
2018-05-10T06:48:26.323Z,28.66
2018-05-10T06:50:54.578Z,28.70
2018-05-10T06:53:22.834Z,27.52
2018-05-10T06:55:51.093Z,29.47
2018-05-10T06:58:19.360Z,31.31
2018-05-10T07:00:47.615Z,33.64
2018-05-10T07:03:15.892Z,32.19
2018-05-10T07:05:44.130Z,30.18
2018-05-10T07:08:13.163Z,27.74
2018-05-10T07:10:41.412Z,26.93
2018-05-10T07:13:10.439Z,28.99
2018-05-10T07:15:38.699Z,32.12
2018-05-10T07:18:06.975Z,29.16
2018-05-10T07:20:35.995Z,29.98
2018-05-10T07:23:04.251Z,30.11
2018-05-10T07:25:33.274Z,30.78
2018-05-10T07:28:01.544Z,28.39
2018-05-10T07:32:58.156Z,27.08
2018-05-10T07:35:27.845Z,30.71
2018-05-10T07:37:56.100Z,27.97
2018-05-10T07:40:24.351Z,29.42
2018-05-10T07:42:53.379Z,27.76
2018-05-10T07:45:21.645Z,28.56
2018-05-10T07:47:50.674Z,27.19
2018-05-10T07:50:18.927Z,26.14
2018-05-10T07:52:47.182Z,23.73
2018-05-10T07:55:15.447Z,22.88
2018-05-10T07:57:43.705Z,21.87
2018-05-10T08:00:11.971Z,22.02
2018-05-10T08:02:40.224Z,23.01
2018-05-10T08:05:09.258Z,23.74
2018-05-10T08:07:38.439Z,24.56
2018-05-10T08:10:06.716Z,24.74
2018-05-10T08:12:35.733Z,24.25
2018-05-10T08:15:04.004Z,22.64
2018-05-10T08:17:32.252Z,22.12
2018-05-10T08:20:01.275Z,22.84
2018-05-10T08:22:29.535Z,22.12
2018-05-10T08:24:58.555Z,21.80
2018-05-10T08:27:52.433Z,23.06
2018-05-10T08:30:20.708Z,24.63
2018-05-10T08:32:48.947Z,26.37
2018-05-10T08:35:17.220Z,30.05
2018-05-10T08:37:45.453Z,30.85
2018-05-10T08:40:13.721Z,27.67
2018-05-10T08:42:41.965Z,27.64
2018-05-10T08:45:10.407Z,25.60
2018-05-10T08:47:38.502Z,26.53
2018-05-10T08:50:06.755Z,24.06
2018-05-10T08:52:35.015Z,23.70
2018-05-10T08:55:03.280Z,22.28
2018-05-10T08:57:32.286Z,22.11
2018-05-10T09:00:00.590Z,22.97
2018-05-10T09:02:29.571Z,22.88
2018-05-10T09:04:57.831Z,22.92
2018-05-10T09:07:26.903Z,22.76
2018-05-10T09:09:55.125Z,22.35
2018-05-10T09:12:24.147Z,21.39
2018-05-10T09:14:52.403Z,22.02
2018-05-10T09:17:20.656Z,22.78
2018-05-10T09:19:48.920Z,26.43
2018-05-10T09:22:17.177Z,28.77
2018-05-10T09:24:45.438Z,28.01
2018-05-10T09:27:13.688Z,27.80
2018-05-10T09:29:43.980Z,25.19
2018-05-10T09:32:12.227Z,24.17
2018-05-10T09:34:40.494Z,26.36
2018-05-10T09:37:08.756Z,28.12
2018-05-10T09:39:37.784Z,26.97
2018-05-10T09:42:06.069Z,27.62
2018-05-10T09:44:34.321Z,28.26
2018-05-10T09:47:03.343Z,26.15
2018-05-10T09:49:31.590Z,27.98
2018-05-10T09:52:00.905Z,28.03
2018-05-10T09:54:29.919Z,28.08
2018-05-10T09:56:58.208Z,29.57
2018-05-10T09:59:26.459Z,29.90
2018-05-10T10:01:55.494Z,28.37
2018-05-10T10:04:23.750Z,29.38
2018-05-10T10:06:52.770Z,30.76
2018-05-10T10:09:21.019Z,30.53
2018-05-10T10:11:50.047Z,28.96
2018-05-10T10:14:18.308Z,28.61
2018-05-10T10:16:46.587Z,26.20
2018-05-10T10:19:14.840Z,26.54
2018-05-10T10:21:43.122Z,29.03
2018-05-10T10:24:11.374Z,29.72
2018-05-10T10:26:39.630Z,29.74
2018-05-10T10:29:07.906Z,29.51
2018-05-10T10:31:36.173Z,29.36
2018-05-10T10:34:05.441Z,29.60
2018-05-10T10:36:33.699Z,28.61
2018-05-10T10:39:01.954Z,29.03
2018-05-10T10:41:30.211Z,27.30
2018-05-10T10:43:59.220Z,25.96
2018-05-10T10:46:27.488Z,25.59
2018-05-10T10:48:56.513Z,26.03
2018-05-10T10:51:24.769Z,25.67
2018-05-10T10:53:53.869Z,25.10
2018-05-10T10:56:22.043Z,25.64
2018-05-10T10:58:51.060Z,26.65
2018-05-10T11:01:19.327Z,26.38
2018-05-10T11:03:47.579Z,24.61
2018-05-10T11:06:15.852Z,24.09
2018-05-10T11:08:44.108Z,23.74
2018-05-10T11:11:12.371Z,22.69
2018-05-10T11:13:40.628Z,22.19
2018-05-10T11:16:09.646Z,23.14
2018-05-10T11:18:37.905Z,24.83
2018-05-10T11:21:06.174Z,24.30
2018-05-10T11:23:35.182Z,24.87
2018-05-10T11:26:04.094Z,25.83
2018-05-10T11:28:32.355Z,25.30
2018-05-10T11:31:01.391Z,23.80
2018-05-10T11:33:29.640Z,23.81
2018-05-10T11:35:57.920Z,22.98
2018-05-10T11:38:26.170Z,22.71
2018-05-10T11:40:54.427Z,23.20
2018-05-10T11:43:22.697Z,24.09
2018-05-10T11:45:50.955Z,24.70
2018-05-10T11:48:19.225Z,25.44
2018-05-10T11:50:47.472Z,24.80
2018-05-10T11:53:15.739Z,23.93
2018-05-10T11:55:43.983Z,24.90
2018-05-10T11:58:12.245Z,23.84
2018-05-10T12:00:40.497Z,23.50
2018-05-10T12:03:08.990Z,24.24
2018-05-10T12:05:38.003Z,25.06
2018-05-10T12:08:06.247Z,26.47
2018-05-10T12:10:34.506Z,26.89
2018-05-10T12:13:02.768Z,27.34
2018-05-10T12:15:31.018Z,25.17
2018-05-10T12:17:59.283Z,25.35
2018-05-10T12:20:28.314Z,25.62
2018-05-10T12:22:57.327Z,26.81
2018-05-10T12:25:25.586Z,26.54
2018-05-10T12:27:53.844Z,27.35
2018-05-10T12:30:22.891Z,26.24
2018-05-10T12:32:51.135Z,25.42
2018-05-10T12:35:20.155Z,26.47
2018-05-10T12:37:48.412Z,25.09
2018-05-10T12:40:17.439Z,25.13
2018-05-10T12:42:45.712Z,24.93
2018-05-10T12:45:13.959Z,24.65
2018-05-10T12:47:42.987Z,24.49
2018-05-10T12:50:11.842Z,23.05
2018-05-10T12:52:40.099Z,23.34
2018-05-10T12:55:08.359Z,23.57
2018-05-10T12:57:36.628Z,22.68
2018-05-10T13:00:04.871Z,22.60
2018-05-10T13:02:33.925Z,23.48
2018-05-10T13:05:02.176Z,23.09
2018-05-10T13:07:30.435Z,23.28
2018-05-10T13:09:59.457Z,23.05
2018-05-10T13:12:27.718Z,23.24
2018-05-10T13:14:56.744Z,23.11
2018-05-10T13:17:24.991Z,22.95
2018-05-10T13:19:54.026Z,22.68
2018-05-10T13:22:22.292Z,22.85
2018-05-10T13:24:51.327Z,23.32
2018-05-10T13:27:19.661Z,23.00
2018-05-10T13:29:47.859Z,23.03
2018-05-10T13:32:16.871Z,23.11
2018-05-10T13:34:45.140Z,22.80
2018-05-10T13:37:13.389Z,23.46
2018-05-10T13:39:42.415Z,23.52
2018-05-10T13:42:10.664Z,23.19
2018-05-10T13:44:39.695Z,23.51
2018-05-10T13:47:08.015Z,23.67
2018-05-10T13:49:36.983Z,24.14
2018-05-10T13:52:05.259Z,24.59
2018-05-10T13:54:33.512Z,24.24
2018-05-10T13:57:01.772Z,24.25
2018-05-10T13:59:30.048Z,24.01
2018-05-10T14:01:58.303Z,23.40
2018-05-10T14:04:26.576Z,23.48
2018-05-10T14:06:54.818Z,23.90
2018-05-10T14:09:23.089Z,23.57
2018-05-10T14:11:52.104Z,22.31
2018-05-10T14:14:20.375Z,22.18
2018-05-10T14:16:48.627Z,22.54
2018-05-10T14:19:16.904Z,22.70
2018-05-10T14:21:45.148Z,23.02
2018-05-10T14:24:13.415Z,23.36
2018-05-10T14:26:41.671Z,23.52
2018-05-10T14:29:10.695Z,22.52
2018-05-10T14:31:38.952Z,22.27
2018-05-10T14:34:07.989Z,21.53
2018-05-10T14:36:36.240Z,21.04
2018-05-10T14:39:05.412Z,20.57
2018-05-10T14:41:34.440Z,20.92
2018-05-10T14:44:02.707Z,20.70
2018-05-10T14:46:32.959Z,20.66
2018-05-10T14:49:01.231Z,20.49
2018-05-10T14:51:29.475Z,20.31
2018-05-10T14:53:58.570Z,19.92
2018-05-10T14:56:26.771Z,19.78
2018-05-10T14:58:55.797Z,19.59
2018-05-10T15:01:24.071Z,19.55
2018-05-10T15:03:52.333Z,19.32
2018-05-10T15:06:20.602Z,19.15
2018-05-10T15:08:49.627Z,18.61
2018-05-10T15:11:17.897Z,18.35
2018-05-10T15:13:46.175Z,18.26
2018-05-10T15:16:15.261Z,18.28
2018-05-10T15:18:44.271Z,18.38
2018-05-10T15:21:12.537Z,18.31
2018-05-10T15:23:41.627Z,18.24
2018-05-10T15:26:09.813Z,18.36
2018-05-10T15:28:40.078Z,18.27
2018-05-10T15:31:08.331Z,18.07
2018-05-10T15:33:37.352Z,18.22
2018-05-10T15:36:05.614Z,18.40
2018-05-10T15:38:34.631Z,18.29
2018-05-10T15:41:02.895Z,18.28
2018-05-10T15:43:31.155Z,18.33
2018-05-10T15:46:00.179Z,18.11
2018-05-10T15:48:28.438Z,18.35
2018-05-10T15:50:57.463Z,18.57
2018-05-10T15:53:25.728Z,18.64
2018-05-10T15:55:54.008Z,18.69
2018-05-10T15:58:22.336Z,18.67
2018-05-10T16:00:50.535Z,18.94
2018-05-10T16:03:18.790Z,19.01
2018-05-10T16:05:47.056Z,19.14
2018-05-10T16:08:15.294Z,19.08
2018-05-10T16:10:45.569Z,19.08
2018-05-10T16:13:13.815Z,19.47
2018-05-10T16:15:42.082Z,18.91
2018-05-10T16:18:11.095Z,18.99
2018-05-10T16:20:39.347Z,19.13
2018-05-10T16:23:07.632Z,19.06
2018-05-10T16:25:35.900Z,19.31
2018-05-10T16:28:04.148Z,19.25
2018-05-10T16:30:32.419Z,19.37
2018-05-10T16:33:00.667Z,19.07
2018-05-10T16:35:29.701Z,19.42
2018-05-10T16:37:59.407Z,18.82
2018-05-10T16:40:27.681Z,18.76
2018-05-10T16:42:55.936Z,18.58
2018-05-10T16:45:24.971Z,18.45
2018-05-10T16:47:53.219Z,18.48
2018-05-10T16:50:22.247Z,18.50
2018-05-10T16:52:50.691Z,18.45
2018-05-10T16:55:19.707Z,18.20
2018-05-10T16:57:47.971Z,18.16
2018-05-10T17:00:16.993Z,18.21
2018-05-10T17:02:45.248Z,18.13
2018-05-10T17:05:14.263Z,18.15
2018-05-10T17:07:42.530Z,18.17
2018-05-10T17:10:11.556Z,17.96
2018-05-10T17:12:40.356Z,17.93
2018-05-10T17:15:08.611Z,17.77
2018-05-10T17:17:37.631Z,17.73
2018-05-10T17:20:05.896Z,17.59
2018-05-10T17:22:34.910Z,17.40
2018-05-10T17:25:03.177Z,17.40
2018-05-10T17:27:31.562Z,17.47
2018-05-10T17:30:00.833Z,17.44
2018-05-10T17:32:29.105Z,17.48
2018-05-10T17:34:57.360Z,17.45
2018-05-10T17:37:25.619Z,17.30
2018-05-10T17:39:53.870Z,17.26
2018-05-10T17:42:22.898Z,17.15
2018-05-10T17:44:51.147Z,17.11
2018-05-10T17:47:20.174Z,17.11
2018-05-10T17:49:48.433Z,17.18
2018-05-10T17:52:16.711Z,17.07
2018-05-10T17:54:45.721Z,16.98
2018-05-10T17:57:14.808Z,16.94
2018-05-10T17:59:43.823Z,16.83
2018-05-10T18:02:12.091Z,16.66
2018-05-10T18:04:40.338Z,16.66
2018-05-10T18:07:08.634Z,16.52
2018-05-10T18:09:36.862Z,16.38
2018-05-10T18:12:05.128Z,16.30
2018-05-10T18:14:33.394Z,16.22
2018-05-10T18:17:01.654Z,16.16
2018-05-10T18:19:29.921Z,16.21
2018-05-10T18:21:58.173Z,16.18
2018-05-10T18:24:26.419Z,16.27
2018-05-10T18:26:54.714Z,16.13
2018-05-10T18:29:23.710Z,15.95
2018-05-10T18:31:51.975Z,15.88
2018-05-10T18:34:20.226Z,15.93
2018-05-10T18:36:48.493Z,15.92
2018-05-10T18:39:16.750Z,15.82
2018-05-10T18:41:45.007Z,15.64
2018-05-10T18:44:13.267Z,15.40
2018-05-10T18:46:42.290Z,15.07
2018-05-10T18:49:10.876Z,14.89
2018-05-10T18:51:39.120Z,14.74
2018-05-10T18:54:08.133Z,14.71
2018-05-10T18:56:36.403Z,14.72
2018-05-10T18:59:05.427Z,14.50
2018-05-10T19:01:33.695Z,14.33
2018-05-10T19:04:01.975Z,14.15
2018-05-10T19:06:30.229Z,14.03
2018-05-10T19:08:58.498Z,14.00
2018-05-10T19:11:26.747Z,13.95
2018-05-10T19:13:55.018Z,13.71
2018-05-10T19:16:23.275Z,13.58
2018-05-10T19:18:52.294Z,13.55
2018-05-10T19:21:20.563Z,13.48
2018-05-10T19:23:48.825Z,13.33
2018-05-10T19:26:17.842Z,13.26
2018-05-10T19:28:46.116Z,13.11
2018-05-10T19:31:14.362Z,13.18
2018-05-10T19:33:42.634Z,13.12
2018-05-10T19:36:10.969Z,13.03
2018-05-10T19:38:39.220Z,12.99
2018-05-10T19:41:08.248Z,13.01
2018-05-10T19:43:37.271Z,13.02
2018-05-10T19:46:05.521Z,12.98
2018-05-10T19:48:33.787Z,12.96
2018-05-10T19:51:02.817Z,12.91
2018-05-10T19:53:31.083Z,12.90
2018-05-10T19:55:59.339Z,12.92
2018-05-10T19:58:28.371Z,12.94
2018-05-10T20:00:56.628Z,12.88
2018-05-10T20:03:25.853Z,12.86
2018-05-10T20:05:54.106Z,12.70
2018-05-10T20:08:23.141Z,12.52
2018-05-10T20:10:51.386Z,12.40
2018-05-10T20:13:20.420Z,12.32
2018-05-10T20:15:48.681Z,12.34
2018-05-10T20:18:16.930Z,12.39
2018-05-10T20:20:45.961Z,12.30
2018-05-10T20:23:14.237Z,12.38
2018-05-10T20:25:42.507Z,12.06
2018-05-10T20:28:11.634Z,12.01
2018-05-10T20:30:39.788Z,11.85
2018-05-10T20:33:08.049Z,11.95
2018-05-10T20:35:37.068Z,11.52
2018-05-10T20:38:05.339Z,11.30
2018-05-10T20:40:34.367Z,11.27
2018-05-10T20:43:02.717Z,11.10
2018-05-10T20:45:30.954Z,11.02
2018-05-10T20:47:59.231Z,11.01
2018-05-10T20:50:27.555Z,10.97
2018-05-10T20:52:55.775Z,11.02
2018-05-10T20:55:24.051Z,10.93
2018-05-10T20:57:52.306Z,10.94
2018-05-10T21:00:20.570Z,10.95
2018-05-10T21:02:49.597Z,11.15
2018-05-10T21:05:17.862Z,11.13
2018-05-10T21:07:46.890Z,10.98
2018-05-10T21:10:15.156Z,11.03
2018-05-10T21:12:43.428Z,10.89
2018-05-10T21:15:11.698Z,10.81
2018-05-10T21:17:40.716Z,10.79
2018-05-10T21:20:09.563Z,10.80
2018-05-10T21:22:37.823Z,10.83
2018-05-10T21:25:06.094Z,10.78
2018-05-10T21:27:34.355Z,10.74
2018-05-10T21:30:02.619Z,10.89
2018-05-10T21:32:30.876Z,10.79
2018-05-10T21:34:59.142Z,10.63
2018-05-10T21:37:27.403Z,10.53
2018-05-10T21:39:55.664Z,10.57
2018-05-10T21:42:23.908Z,10.67
2018-05-10T21:44:53.035Z,10.62
2018-05-10T21:47:21.186Z,10.49
2018-05-10T21:50:05.567Z,10.51
2018-05-10T21:52:33.814Z,10.66
2018-05-10T21:55:02.860Z,10.78
2018-05-10T21:57:31.100Z,10.74
2018-05-10T21:59:59.371Z,10.63
2018-05-10T22:02:28.374Z,10.58
2018-05-10T22:04:57.468Z,10.48
2018-05-10T22:07:26.488Z,10.49
2018-05-10T22:09:54.751Z,10.44
2018-05-10T22:12:23.771Z,10.40
2018-05-10T22:14:52.018Z,10.32
2018-05-10T22:17:21.077Z,10.22
2018-05-10T22:19:49.336Z,10.15
2018-05-10T22:25:16.192Z,10.07
2018-05-10T22:27:44.449Z,10.03
2018-05-10T22:30:13.467Z,9.99
2018-05-10T22:32:41.707Z,9.95
2018-05-10T22:35:10.643Z,9.93
2018-05-10T22:37:38.875Z,9.95
2018-05-10T22:40:07.123Z,9.86
2018-05-10T22:42:35.369Z,9.85
2018-05-10T22:45:03.623Z,9.81
2018-05-10T22:47:32.636Z,9.73
2018-05-10T22:50:01.660Z,9.72
2018-05-10T22:52:29.917Z,9.53
2018-05-10T22:54:58.943Z,9.69
2018-05-10T22:57:27.189Z,9.65
2018-05-10T22:59:56.288Z,9.60
2018-05-10T23:02:25.314Z,9.52
2018-05-10T23:04:53.557Z,9.69
2018-05-10T23:07:22.570Z,9.74
2018-05-10T23:09:50.825Z,9.52
2018-05-10T23:12:19.072Z,9.67
2018-05-10T23:14:47.317Z,9.64
2018-05-10T23:17:15.579Z,9.58
2018-05-10T23:19:44.591Z,9.61
2018-05-10T23:22:13.366Z,9.54
2018-05-10T23:24:42.370Z,9.45
2018-05-10T23:27:11.393Z,9.42
2018-05-10T23:29:39.676Z,9.48
2018-05-10T23:32:08.675Z,9.49
2018-05-10T23:34:36.919Z,9.52
2018-05-10T23:37:05.938Z,9.61
2018-05-10T23:39:34.183Z,9.51
2018-05-10T23:42:02.434Z,9.49
2018-05-10T23:44:30.693Z,9.57
2018-05-10T23:46:58.959Z,9.49
2018-05-10T23:49:28.481Z,9.57
2018-05-10T23:51:56.726Z,9.70
2018-05-10T23:54:25.753Z,9.77
2018-05-10T23:56:54.007Z,9.70
2018-05-10T23:59:23.011Z,9.74
